Time;durP1;ratioP1;P1;durP2;ratioP2;P2;SDS_P1;SDS_P2;PMS_P1;PMS_P2;Temp;Humidity;BMP_temperature;BMP_pressure;BME280_temperature;BME280_humidity;BME280_pressure;Samples;Min_cycle;Max_cycle;Signal;HPM_P1;HPM_P2
2021/10/23 00:00:47;;;;;;;7.75;3.17;;;14.10;69.50;;;;;;5025925;28;20030;-66
2021/10/23 00:03:13;;;;;;;9.30;3.50;;;14.00;69.40;;;;;;5029746;28;20092;-66
2021/10/23 00:05:39;;;;;;;6.72;3.40;;;14.00;69.40;;;;;;5030245;28;20032;-66
2021/10/23 00:08:05;;;;;;;9.52;3.30;;;14.00;69.40;;;;;;5036228;28;20123;-66
2021/10/23 00:10:31;;;;;;;9.00;3.25;;;14.00;69.50;;;;;;5020272;28;20026;-67
2021/10/23 00:12:57;;;;;;;9.00;3.33;;;13.90;69.60;;;;;;5024850;28;20566;-66
2021/10/23 00:15:23;;;;;;;6.88;3.50;;;13.90;69.70;;;;;;5028853;28;20030;-67
2021/10/23 00:17:49;;;;;;;8.35;3.30;;;13.90;69.70;;;;;;5031402;28;20567;-66
2021/10/23 00:20:14;;;;;;;6.47;3.13;;;13.90;69.80;;;;;;5044535;28;20021;-66
2021/10/23 00:22:40;;;;;;;5.95;3.10;;;13.90;69.70;;;;;;5026408;28;20091;-66
2021/10/23 00:25:07;;;;;;;9.18;3.53;;;13.90;69.80;;;;;;5027936;28;20084;-66
2021/10/23 00:27:33;;;;;;;8.32;3.25;;;13.90;69.90;;;;;;5017809;28;20497;-67
2021/10/23 00:29:59;;;;;;;7.38;3.10;;;13.90;70.00;;;;;;5031196;28;20108;-66
2021/10/23 00:32:26;;;;;;;6.68;3.42;;;13.80;70.10;;;;;;5030337;28;20596;-66
2021/10/23 00:34:52;;;;;;;7.78;3.33;;;13.90;70.20;;;;;;5028263;28;20026;-67
2021/10/23 00:37:19;;;;;;;9.50;3.92;;;13.80;70.20;;;;;;5025530;28;20103;-67
2021/10/23 00:39:44;;;;;;;9.52;4.10;;;13.80;70.20;;;;;;5028436;28;20584;-67
2021/10/23 00:42:11;;;;;;;8.13;3.60;;;13.80;70.30;;;;;;5044828;28;20108;-67
2021/10/23 00:44:39;;;;;;;8.43;4.10;;;13.80;70.40;;;;;;5033795;28;20022;-67
2021/10/23 00:47:19;;;;;;;8.60;3.85;;;13.80;70.60;;;;;;5036073;28;20032;-66
2021/10/23 00:49:48;;;;;;;7.50;3.80;;;13.70;71.50;;;;;;5032326;28;20079;-66
2021/10/23 00:52:14;;;;;;;12.25;4.30;;;13.70;71.20;;;;;;5030311;28;20037;-66
2021/10/23 00:54:40;;;;;;;8.25;4.10;;;13.70;71.30;;;;;;5035159;28;20443;-67
2021/10/23 00:57:06;;;;;;;10.10;4.40;;;13.70;71.50;;;;;;5028548;28;20037;-66
2021/10/23 00:59:33;;;;;;;8.15;3.83;;;13.60;71.40;;;;;;5044378;28;20049;-66
2021/10/23 01:02:00;;;;;;;8.13;4.07;;;13.60;71.30;;;;;;5029785;28;20056;-66
2021/10/23 01:04:27;;;;;;;9.43;3.95;;;13.60;71.30;;;;;;5034688;28;20029;-66
2021/10/23 01:06:53;;;;;;;8.55;3.40;;;13.60;71.40;;;;;;5027472;28;20063;-66
2021/10/23 01:09:19;;;;;;;7.80;3.72;;;13.60;71.50;;;;;;5029883;28;20061;-67
2021/10/23 01:11:46;;;;;;;6.90;3.75;;;13.60;71.50;;;;;;5026841;28;20065;-66
2021/10/23 01:14:18;;;;;;;6.10;3.50;;;13.70;71.50;;;;;;5030090;28;20098;-66
2021/10/23 01:16:45;;;;;;;7.15;3.72;;;13.70;71.60;;;;;;5029750;28;20025;-66
2021/10/23 01:19:11;;;;;;;10.35;4.35;;;13.70;71.60;;;;;;5030269;28;20030;-66
2021/10/23 01:21:38;;;;;;;8.90;3.92;;;13.70;71.60;;;;;;5029685;28;20080;-67
2021/10/23 01:24:05;;;;;;;8.95;4.65;;;13.70;71.60;;;;;;5033458;28;20489;-67
2021/10/23 01:26:31;;;;;;;6.75;3.70;;;13.70;71.60;;;;;;5032764;28;20040;-67
2021/10/23 01:28:57;;;;;;;12.57;4.03;;;13.70;71.60;;;;;;5028657;28;20026;-66
2021/10/23 01:31:23;;;;;;;10.27;4.05;;;13.70;71.80;;;;;;5028861;28;20118;-67
2021/10/23 01:33:49;;;;;;;10.93;4.55;;;13.70;71.70;;;;;;5034839;28;20033;-67
2021/10/23 01:36:16;;;;;;;9.10;4.03;;;13.70;71.70;;;;;;5029242;28;20017;-66
2021/10/23 01:38:43;;;;;;;10.25;4.38;;;13.70;71.90;;;;;;5028199;28;20025;-67
2021/10/23 01:41:09;;;;;;;14.23;4.32;;;13.70;71.90;;;;;;5033358;28;20451;-66
2021/10/23 01:43:35;;;;;;;9.63;4.20;;;13.60;71.80;;;;;;5029057;28;20104;-66
2021/10/23 01:46:02;;;;;;;9.43;4.88;;;13.60;71.90;;;;;;5031695;28;20124;-67
2021/10/23 01:48:29;;;;;;;10.73;4.20;;;13.60;72.00;;;;;;5030116;28;20034;-67
2021/10/23 01:50:54;;;;;;;9.63;4.63;;;13.60;72.00;;;;;;5038027;28;20056;-67
2021/10/23 01:53:20;;;;;;;9.13;4.68;;;13.60;72.10;;;;;;5036537;28;20497;-66
2021/10/23 01:55:46;;;;;;;7.53;4.78;;;13.50;72.00;;;;;;5031345;28;20033;-66
2021/10/23 01:58:13;;;;;;;8.55;5.13;;;13.50;72.10;;;;;;5034888;28;20029;-67
2021/10/23 02:00:39;;;;;;;10.82;5.22;;;13.50;72.10;;;;;;5029656;28;20076;-67
2021/10/23 02:03:05;;;;;;;9.85;5.18;;;13.50;72.10;;;;;;5029918;28;20083;-66
2021/10/23 02:05:31;;;;;;;13.13;5.22;;;13.50;72.10;;;;;;5032375;28;20471;-66
2021/10/23 02:07:57;;;;;;;12.10;6.40;;;13.60;72.20;;;;;;5034856;28;20092;-67
2021/10/23 02:10:23;;;;;;;16.48;6.78;;;13.50;72.50;;;;;;5033536;28;20021;-67
2021/10/23 02:12:48;;;;;;;10.95;5.90;;;13.50;72.60;;;;;;5028149;28;20045;-67
2021/10/23 02:15:14;;;;;;;12.98;5.45;;;13.50;72.50;;;;;;5036785;28;20014;-66
2021/10/23 02:17:40;;;;;;;10.80;6.13;;;13.40;72.50;;;;;;5031248;28;20044;-66
2021/10/23 02:20:08;;;;;;;10.32;6.32;;;13.40;72.50;;;;;;5028799;28;20021;-66
2021/10/23 02:22:34;;;;;;;11.45;6.07;;;13.40;72.60;;;;;;5027900;28;20400;-66
2021/10/23 02:25:00;;;;;;;10.82;5.72;;;13.30;72.50;;;;;;5028793;28;20025;-66
2021/10/23 02:27:25;;;;;;;11.30;5.47;;;13.40;72.50;;;;;;5021597;28;20560;-66
2021/10/23 02:29:51;;;;;;;11.40;6.10;;;13.40;73.40;;;;;;5028790;28;20515;-67
2021/10/23 02:32:17;;;;;;;13.00;5.88;;;13.40;72.50;;;;;;5029179;28;20475;-66
2021/10/23 02:34:43;;;;;;;13.40;5.93;;;13.40;72.60;;;;;;5031445;28;20022;-67
2021/10/23 02:37:09;;;;;;;13.13;5.85;;;13.40;72.80;;;;;;5023772;28;20397;-66
2021/10/23 02:39:35;;;;;;;9.35;5.10;;;13.40;72.90;;;;;;5023307;28;20026;-66
2021/10/23 02:42:01;;;;;;;10.13;5.18;;;13.40;73.00;;;;;;5041228;28;20045;-67
2021/10/23 02:44:27;;;;;;;10.65;5.57;;;13.40;73.10;;;;;;5034478;28;20500;-67
2021/10/23 02:46:52;;;;;;;10.38;5.07;;;13.40;73.20;;;;;;5031669;28;20142;-67
2021/10/23 02:49:18;;;;;;;10.63;5.93;;;13.40;73.30;;;;;;5027259;28;20040;-67
2021/10/23 02:51:47;;;;;;;11.90;6.13;;;13.40;73.40;;;;;;5026994;28;20045;-66
2021/10/23 02:54:13;;;;;;;11.55;6.00;;;13.40;73.50;;;;;;5031705;28;20269;-66
2021/10/23 02:56:39;;;;;;;11.23;5.53;;;13.30;73.40;;;;;;5015072;28;20058;-66
2021/10/23 02:59:05;;;;;;;13.07;6.00;;;13.30;73.40;;;;;;5033017;28;20025;-66
2021/10/23 03:01:31;;;;;;;11.52;5.80;;;13.30;73.40;;;;;;5020349;28;20030;-67
2021/10/23 03:03:57;;;;;;;8.93;5.75;;;13.30;73.50;;;;;;5022598;28;20071;-66
2021/10/23 03:06:23;;;;;;;13.70;6.80;;;13.30;73.70;;;;;;5026067;28;20087;-67
2021/10/23 03:08:49;;;;;;;11.88;6.07;;;13.30;73.60;;;;;;5020134;28;20492;-67
2021/10/23 03:11:14;;;;;;;10.45;6.18;;;13.30;73.60;;;;;;5011316;28;20563;-66
2021/10/23 03:13:41;;;;;;;9.48;5.60;;;13.20;73.70;;;;;;5012197;28;20041;-67
2021/10/23 03:16:08;;;;;;;8.98;5.22;;;13.30;73.70;;;;;;5020432;28;20293;-67
2021/10/23 03:18:33;;;;;;;12.45;6.40;;;13.30;73.70;;;;;;5019680;28;20492;-67
2021/10/23 03:20:59;;;;;;;8.35;5.50;;;13.30;73.80;;;;;;5028144;28;20025;-67
2021/10/23 03:23:25;;;;;;;11.88;5.78;;;13.30;73.80;;;;;;5015581;28;20116;-67
2021/10/23 03:25:51;;;;;;;9.68;5.72;;;13.30;73.80;;;;;;5022408;28;20228;-67
2021/10/23 03:28:17;;;;;;;10.65;5.97;;;13.20;73.80;;;;;;5020523;28;20603;-66
2021/10/23 03:30:43;;;;;;;9.63;6.10;;;13.30;73.80;;;;;;5027679;28;20397;-67
2021/10/23 03:33:08;;;;;;;11.23;6.00;;;13.20;73.80;;;;;;5030654;28;20033;-67
2021/10/23 03:35:34;;;;;;;12.40;6.03;;;13.20;73.80;;;;;;5030628;28;20025;-67
2021/10/23 03:38:02;;;;;;;11.68;6.75;;;13.20;73.90;;;;;;5030504;28;20467;-67
2021/10/23 03:40:28;;;;;;;10.85;6.43;;;13.20;73.80;;;;;;5027878;28;20465;-67
2021/10/23 03:42:53;;;;;;;10.95;6.53;;;13.20;74.00;;;;;;5026237;28;20049;-67
2021/10/23 03:45:19;;;;;;;16.45;6.38;;;13.20;74.10;;;;;;5033869;28;20108;-67
2021/10/23 03:47:45;;;;;;;12.13;6.30;;;13.20;74.10;;;;;;5033512;28;20026;-66
2021/10/23 03:50:11;;;;;;;11.07;6.82;;;13.20;74.20;;;;;;5033331;28;20096;-67
2021/10/23 03:52:37;;;;;;;9.25;6.30;;;13.20;74.20;;;;;;5027399;28;20091;-66
2021/10/23 03:55:04;;;;;;;10.35;6.28;;;13.20;74.10;;;;;;5023820;28;20080;-66
2021/10/23 03:57:30;;;;;;;9.57;6.28;;;13.20;74.20;;;;;;5027099;28;20030;-66
2021/10/23 03:59:56;;;;;;;12.18;7.40;;;13.20;74.20;;;;;;5042141;28;20082;-66
2021/10/23 04:02:22;;;;;;;10.85;6.50;;;13.20;74.20;;;;;;5030229;28;20029;-66
2021/10/23 04:04:48;;;;;;;9.38;5.55;;;13.20;74.30;;;;;;5035107;28;20041;-67
2021/10/23 04:07:14;;;;;;;11.13;6.20;;;13.20;74.30;;;;;;5025996;28;20029;-66
2021/10/23 04:09:39;;;;;;;8.40;5.88;;;13.10;74.40;;;;;;5031008;28;20025;-66
2021/10/23 04:12:05;;;;;;;11.20;6.03;;;13.10;74.40;;;;;;5026733;28;20041;-66
2021/10/23 04:14:31;;;;;;;10.00;6.43;;;13.10;74.50;;;;;;5039395;28;20083;-66
2021/10/23 04:16:57;;;;;;;10.48;5.90;;;13.10;74.60;;;;;;5032635;28;20037;-67
2021/10/23 04:19:23;;;;;;;11.30;5.95;;;13.10;74.70;;;;;;5029921;28;20024;-66
2021/10/23 04:21:49;;;;;;;10.05;6.30;;;13.00;74.70;;;;;;5027571;28;20029;-66
2021/10/23 04:24:14;;;;;;;11.60;6.00;;;13.00;74.70;;;;;;5028785;28;20037;-66
2021/10/23 04:26:41;;;;;;;12.88;6.38;;;13.00;75.00;;;;;;5028044;28;20083;-66
2021/10/23 04:29:07;;;;;;;8.13;5.60;;;13.00;74.90;;;;;;5027004;28;20030;-66
2021/10/23 04:31:33;;;;;;;13.05;6.40;;;13.00;74.90;;;;;;5027174;28;20037;-66
2021/10/23 04:34:00;;;;;;;8.65;6.15;;;13.00;75.00;;;;;;5027617;28;20031;-66
2021/10/23 04:36:26;;;;;;;11.68;5.65;;;13.00;74.90;;;;;;5022577;28;20033;-66
2021/10/23 04:38:52;;;;;;;10.43;5.82;;;13.00;75.00;;;;;;5025194;28;20033;-66
2021/10/23 04:41:18;;;;;;;10.85;5.85;;;13.00;75.00;;;;;;5028924;28;20037;-66
2021/10/23 04:43:43;;;;;;;8.90;5.22;;;13.00;75.00;;;;;;5030683;28;20026;-66
2021/10/23 04:46:09;;;;;;;11.95;5.95;;;13.00;75.10;;;;;;5025231;28;20026;-67
2021/10/23 04:48:35;;;;;;;11.90;5.75;;;13.00;75.10;;;;;;5024115;28;20026;-66
2021/10/23 04:51:02;;;;;;;10.60;5.90;;;13.00;75.10;;;;;;5028750;28;20050;-67
2021/10/23 04:53:28;;;;;;;11.20;5.93;;;13.00;75.00;;;;;;5035399;28;20218;-66
2021/10/23 04:55:53;;;;;;;10.52;6.15;;;13.10;75.10;;;;;;5025508;28;20544;-66
2021/10/23 04:58:19;;;;;;;8.20;5.82;;;13.00;75.10;;;;;;5031563;28;20030;-66
2021/10/23 05:00:45;;;;;;;13.95;6.40;;;13.00;75.10;;;;;;5034615;28;20554;-66
2021/10/23 05:03:11;;;;;;;12.52;5.95;;;13.00;75.20;;;;;;5029916;28;20033;-67
2021/10/23 05:05:37;;;;;;;10.63;5.45;;;13.00;75.20;;;;;;5036029;28;20043;-67
2021/10/23 05:08:03;;;;;;;9.88;5.28;;;13.00;75.30;;;;;;5033980;28;20385;-66
2021/10/23 05:10:29;;;;;;;10.88;6.05;;;13.00;75.20;;;;;;5029588;28;20503;-66
2021/10/23 05:12:54;;;;;;;10.70;5.60;;;13.00;75.30;;;;;;5032200;28;20488;-66
2021/10/23 05:15:21;;;;;;;10.10;5.95;;;13.00;75.40;;;;;;5029060;28;20033;-67
2021/10/23 05:17:47;;;;;;;11.07;6.10;;;12.90;75.40;;;;;;5031466;28;20029;-66
2021/10/23 05:20:13;;;;;;;9.75;5.68;;;12.90;75.50;;;;;;5033155;28;20048;-66
2021/10/23 05:22:41;;;;;;;12.20;6.20;;;12.90;75.50;;;;;;5029062;28;20026;-66
2021/10/23 05:25:08;;;;;;;9.73;6.00;;;12.90;75.90;;;;;;5033780;28;20025;-66
2021/10/23 05:27:33;;;;;;;13.52;6.15;;;12.90;76.00;;;;;;5024872;28;20033;-66
2021/10/23 05:29:59;;;;;;;10.70;5.68;;;12.90;75.90;;;;;;5029730;28;20032;-66
2021/10/23 05:32:25;;;;;;;10.30;5.82;;;12.80;75.90;;;;;;5035339;28;20094;-67
2021/10/23 05:34:51;;;;;;;8.98;5.43;;;12.90;75.90;;;;;;5034588;28;20433;-66
2021/10/23 05:37:16;;;;;;;9.57;5.68;;;12.90;76.00;;;;;;5030746;28;20022;-66
2021/10/23 05:39:42;;;;;;;10.18;6.15;;;12.90;76.00;;;;;;5030479;28;20022;-66
2021/10/23 05:42:08;;;;;;;12.70;6.00;;;12.90;76.00;;;;;;5030528;28;20116;-67
2021/10/23 05:44:34;;;;;;;15.93;6.00;;;12.90;76.00;;;;;;5034530;28;20021;-66
2021/10/23 05:47:00;;;;;;;9.13;6.50;;;12.90;76.00;;;;;;5026396;28;20087;-66
2021/10/23 05:49:26;;;;;;;13.30;6.47;;;12.90;76.00;;;;;;5029302;28;20416;-66
2021/10/23 05:51:52;;;;;;;9.70;5.80;;;12.90;76.10;;;;;;5027263;28;20060;-66
2021/10/23 05:54:18;;;;;;;9.30;5.78;;;12.90;76.10;;;;;;5032609;28;20029;-66
2021/10/23 05:56:44;;;;;;;11.75;6.07;;;12.90;76.10;;;;;;5040372;28;20036;-66
2021/10/23 05:59:11;;;;;;;9.77;5.65;;;12.90;76.10;;;;;;5044421;28;20033;-66
2021/10/23 06:01:45;;;;;;;10.13;5.68;;;12.90;76.20;;;;;;5028603;28;20131;-66
2021/10/23 06:04:14;;;;;;;11.23;6.00;;;12.80;76.00;;;;;;5030141;28;20123;-66
2021/10/23 06:06:40;;;;;;;10.27;5.53;;;12.80;76.20;;;;;;5028084;28;20017;-66
2021/10/23 06:09:06;;;;;;;10.55;5.72;;;12.80;76.30;;;;;;5031883;28;20037;-66
2021/10/23 06:11:32;;;;;;;10.82;5.90;;;12.80;76.20;;;;;;5029534;28;20029;-66
2021/10/23 06:13:58;;;;;;;11.43;5.68;;;12.80;76.20;;;;;;5029027;28;20037;-66
2021/10/23 06:16:27;;;;;;;12.43;6.28;;;12.80;76.20;;;;;;5036766;28;20048;-66
2021/10/23 06:18:53;;;;;;;13.05;5.85;;;12.70;76.20;;;;;;5027028;28;20057;-67
2021/10/23 06:21:20;;;;;;;12.23;5.88;;;12.80;76.30;;;;;;5028074;28;20103;-66
2021/10/23 06:23:45;;;;;;;9.10;5.53;;;12.70;76.30;;;;;;5032764;28;20025;-66
2021/10/23 06:26:11;;;;;;;11.27;5.60;;;12.70;76.40;;;;;;5028769;28;20029;-66
2021/10/23 06:28:37;;;;;;;10.75;5.50;;;12.70;76.30;;;;;;5031514;28;20022;-67
2021/10/23 06:31:04;;;;;;;9.05;5.25;;;12.70;76.40;;;;;;5033477;28;20029;-67
2021/10/23 06:33:30;;;;;;;10.98;5.70;;;12.60;76.50;;;;;;5032299;28;20101;-66
2021/10/23 06:35:55;;;;;;;10.63;5.38;;;12.60;76.50;;;;;;5025366;28;20033;-67
2021/10/23 06:38:21;;;;;;;11.32;6.18;;;12.60;76.50;;;;;;5030122;28;20033;-67
2021/10/23 06:40:47;;;;;;;9.30;5.78;;;12.60;76.50;;;;;;5029130;28;20025;-67
2021/10/23 06:43:13;;;;;;;10.48;5.78;;;12.60;76.60;;;;;;5032406;28;20558;-67
2021/10/23 06:45:39;;;;;;;12.52;6.20;;;12.60;76.60;;;;;;5035795;28;20033;-64
2021/10/23 06:48:06;;;;;;;9.38;5.85;;;12.60;76.60;;;;;;5028041;28;20041;-66
2021/10/23 06:50:32;;;;;;;13.25;6.10;;;12.60;76.60;;;;;;5030305;28;20029;-66
2021/10/23 06:52:57;;;;;;;13.32;6.57;;;12.60;76.60;;;;;;5028945;28;20088;-67
2021/10/23 06:55:24;;;;;;;13.38;6.75;;;12.60;76.60;;;;;;5026178;28;20053;-66
2021/10/23 06:57:49;;;;;;;21.95;11.00;;;12.50;76.60;;;;;;5026629;28;20044;-66
2021/10/23 07:00:15;;;;;;;14.45;7.70;;;12.70;76.30;;;;;;5027708;28;20021;-67
2021/10/23 07:02:44;;;;;;;12.27;7.15;;;13.00;75.90;;;;;;5037665;28;20025;-67
2021/10/23 07:05:14;;;;;;;13.13;7.57;;;13.20;75.20;;;;;;5016907;28;20033;-67
2021/10/23 07:07:41;;;;;;;11.90;7.00;;;13.40;74.80;;;;;;5022535;28;20021;-67
2021/10/23 07:10:07;;;;;;;11.50;6.75;;;14.00;73.50;;;;;;5031746;28;20474;-67
2021/10/23 07:12:33;;;;;;;13.18;7.10;;;14.20;72.70;;;;;;5023359;28;20032;-67
2021/10/23 07:14:59;;;;;;;11.73;6.75;;;14.60;71.90;;;;;;5028207;28;20029;-66
2021/10/23 07:17:25;;;;;;;15.07;7.38;;;15.10;70.40;;;;;;5026619;28;20041;-68
2021/10/23 07:19:54;;;;;;;12.57;7.38;;;15.30;69.60;;;;;;5027359;28;20037;-68
2021/10/23 07:22:20;;;;;;;14.70;7.07;;;15.80;68.30;;;;;;5025655;28;20041;-68
2021/10/23 07:24:46;;;;;;;18.23;7.57;;;16.40;66.80;;;;;;5026479;28;20071;-67
2021/10/23 07:27:12;;;;;;;13.23;6.72;;;17.00;65.30;;;;;;5027791;28;20033;-67
2021/10/23 07:29:38;;;;;;;14.50;6.60;;;17.50;63.60;;;;;;5030966;28;20528;-67
2021/10/23 07:32:04;;;;;;;13.50;6.65;;;18.00;62.10;;;;;;5023574;28;20053;-67
2021/10/23 07:34:29;;;;;;;14.63;6.85;;;18.60;60.50;;;;;;5026023;28;20025;-68
2021/10/23 07:36:55;;;;;;;10.55;6.43;;;19.10;59.00;;;;;;5026021;28;20029;-67
2021/10/23 07:39:21;;;;;;;10.40;6.25;;;19.60;57.40;;;;;;5026905;28;20045;-67
2021/10/23 07:41:48;;;;;;;13.30;6.30;;;20.10;56.10;;;;;;5015139;28;20100;-67
2021/10/23 07:44:14;;;;;;;13.52;6.97;;;20.60;55.00;;;;;;5015970;28;20030;-67
2021/10/23 07:46:40;;;;;;;15.25;7.53;;;21.10;53.70;;;;;;5016570;28;20065;-67
2021/10/23 07:49:07;;;;;;;13.30;6.88;;;21.00;51.30;;;;;;5022979;28;20649;-68
2021/10/23 07:51:36;;;;;;;11.10;6.43;;;21.50;50.20;;;;;;5026254;28;20064;-68
2021/10/23 07:54:09;;;;;;;12.60;6.45;;;21.80;48.50;;;;;;5012423;28;20052;-68
2021/10/23 07:56:37;;;;;;;10.65;6.50;;;22.40;47.10;;;;;;5025768;28;20382;-68
2021/10/23 07:59:03;;;;;;;12.43;5.38;;;22.80;46.10;;;;;;5016146;28;20038;-68
2021/10/23 08:01:29;;;;;;;11.20;5.80;;;22.60;45.30;;;;;;5026494;28;20404;-67
2021/10/23 08:03:55;;;;;;;10.75;5.57;;;21.60;46.30;;;;;;5028744;28;20052;-68
2021/10/23 08:06:22;;;;;;;15.82;9.82;;;21.00;48.20;;;;;;5029683;28;20037;-68
2021/10/23 08:08:48;;;;;;;9.25;5.93;;;20.70;49.30;;;;;;5032432;28;20033;-67
2021/10/23 08:11:14;;;;;;;9.85;5.65;;;20.40;50.40;;;;;;5027216;28;20025;-68
2021/10/23 08:13:40;;;;;;;11.23;5.85;;;21.10;49.20;;;;;;5015426;28;20045;-67
2021/10/23 08:16:06;;;;;;;10.00;5.80;;;21.60;47.40;;;;;;5022006;28;20110;-61
2021/10/23 08:18:33;;;;;;;11.02;5.95;;;21.10;47.70;;;;;;5012181;28;20539;-62
2021/10/23 08:21:00;;;;;;;14.15;6.13;;;20.70;48.50;;;;;;5016584;28;20024;-62
2021/10/23 08:23:26;;;;;;;9.48;5.82;;;20.70;48.30;;;;;;5014887;28;20026;-61
2021/10/23 08:25:53;;;;;;;12.05;5.88;;;20.80;47.80;;;;;;5012797;28;20030;-61
2021/10/23 08:28:22;;;;;;;9.98;5.70;;;20.90;47.40;;;;;;5013597;28;20052;-62
2021/10/23 08:30:49;;;;;;;24.75;16.23;;;21.90;46.40;;;;;;5013149;28;20435;-62
2021/10/23 08:33:17;;;;;;;10.55;5.78;;;22.80;44.20;;;;;;5009634;28;20401;-62
2021/10/23 08:35:43;;;;;;;10.98;6.07;;;22.60;44.10;;;;;;5025159;28;20045;-62
2021/10/23 08:38:09;;;;;;;11.40;5.88;;;23.00;43.90;;;;;;5029539;28;20036;-62
2021/10/23 08:40:35;;;;;;;10.75;5.63;;;23.70;43.10;;;;;;5022628;28;20022;-62
2021/10/23 08:43:02;;;;;;;10.07;5.93;;;24.30;41.30;;;;;;5028158;28;20437;-62
2021/10/23 08:45:28;;;;;;;8.85;5.28;;;24.50;40.10;;;;;;5017571;28;20037;-62
2021/10/23 08:47:55;;;;;;;11.48;6.60;;;25.00;39.50;;;;;;5015109;28;20104;-62
2021/10/23 08:50:23;;;;;;;11.93;6.20;;;25.50;38.20;;;;;;5018087;28;20053;-62
2021/10/23 08:52:53;;;;;;;10.15;5.25;;;26.80;36.10;;;;;;5030937;28;20099;-63
2021/10/23 08:55:20;;;;;;;9.38;5.47;;;27.10;34.30;;;;;;5026031;28;20030;-63
2021/10/23 08:57:46;;;;;;;8.05;4.05;;;28.80;31.20;;;;;;5029746;28;20551;-62
2021/10/23 09:00:12;;;;;;;10.90;4.93;;;28.20;30.50;;;;;;5031176;28;20112;-63
2021/10/23 09:02:39;;;;;;;7.47;4.40;;;28.00;30.00;;;;;;5032298;28;20033;-63
2021/10/23 09:05:05;;;;;;;8.05;4.30;;;28.40;29.90;;;;;;5019653;28;20037;-63
2021/10/23 09:07:33;;;;;;;7.05;3.50;;;29.70;29.30;;;;;;5031959;28;20030;-63
2021/10/23 09:10:05;;;;;;;8.35;3.38;;;29.50;28.70;;;;;;5032718;28;20065;-64
2021/10/23 09:12:36;;;;;;;8.32;3.30;;;29.10;28.70;;;;;;5029592;28;20081;-63
2021/10/23 09:15:18;;;;;;;7.63;3.75;;;29.90;28.40;;;;;;5035575;28;20618;-63
2021/10/23 09:17:53;;;;;;;7.75;6.32;;;31.10;27.30;;;;;;5029922;28;20036;-64
2021/10/23 09:20:20;;;;;;;20.67;17.98;;;31.70;25.40;;;;;;5032586;28;20120;-63
2021/10/23 09:22:49;;;;;;;17.08;15.57;;;32.20;25.10;;;;;;5030174;28;20427;-66
2021/10/23 09:25:28;;;;;;;31.77;29.60;;;32.70;25.00;;;;;;5030899;28;20037;-66
2021/10/23 09:28:09;;;;;;;26.77;24.85;;;32.60;24.00;;;;;;5030142;28;20025;-66
2021/10/23 09:30:49;;;;;;;23.88;22.08;;;32.80;23.90;;;;;;5029600;28;20076;-66
2021/10/23 09:33:18;;;;;;;7.88;6.05;;;32.80;23.60;;;;;;5025337;28;20024;-67
2021/10/23 09:35:46;;;;;;;9.43;7.68;;;33.10;23.80;;;;;;5028963;28;20040;-66
2021/10/23 09:38:17;;;;;;;9.05;6.65;;;33.20;23.80;;;;;;5035929;28;20025;-66
2021/10/23 09:40:45;;;;;;;8.52;6.50;;;33.70;23.70;;;;;;5024888;28;20040;-66
2021/10/23 09:43:11;;;;;;;9.70;8.65;;;33.90;23.20;;;;;;5024905;28;20083;-66
2021/10/23 09:45:56;;;;;;;9.77;6.88;;;33.70;23.60;;;;;;5028459;28;20028;-66
2021/10/23 09:48:53;;;;;;;8.45;6.07;;;32.00;24.60;;;;;;5027568;28;20029;-66
2021/10/23 09:51:38;;;;;;;8.60;5.55;;;29.60;26.90;;;;;;5023763;28;20044;-66
2021/10/23 09:54:05;;;;;;;5.93;2.67;;;28.00;27.30;;;;;;5029202;28;20033;-67
2021/10/23 09:56:32;;;;;;;6.10;2.67;;;27.50;27.80;;;;;;5028167;28;20036;-67
2021/10/23 09:59:03;;;;;;;7.07;2.97;;;29.40;26.10;;;;;;5021635;28;20048;-67
2021/10/23 10:01:41;;;;;;;7.65;3.80;;;31.40;24.80;;;;;;5030197;28;20584;-66
2021/10/23 10:04:09;;;;;;;9.63;6.28;;;33.00;23.90;;;;;;5028064;28;20077;-67
2021/10/23 10:06:53;;;;;;;5.95;4.57;;;34.60;21.90;;;;;;5028283;28;20477;-67
2021/10/23 10:09:21;;;;;;;5.82;3.38;;;35.30;20.30;;;;;;5020090;28;20116;-67
2021/10/23 10:11:48;;;;;;;6.22;4.03;;;35.90;19.80;;;;;;5023624;28;20112;-67
2021/10/23 10:14:16;;;;;;;6.18;2.38;;;36.70;19.40;;;;;;5027000;28;20029;-67
2021/10/23 10:16:46;;;;;;;4.55;1.70;;;37.40;19.40;;;;;;5038081;28;20061;-67
2021/10/23 10:19:13;;;;;;;4.40;1.67;;;37.70;18.40;;;;;;5028310;28;20029;-67
2021/10/23 10:21:41;;;;;;;4.63;1.67;;;37.90;17.10;;;;;;5028931;28;20183;-68
2021/10/23 10:24:35;;;;;;;4.50;1.10;;;38.30;17.30;;;;;;5028198;28;20871;-68
2021/10/23 10:27:11;;;;;;;5.43;1.77;;;39.60;16.70;;;;;;5027897;28;20061;-68
2021/10/23 10:29:47;;;;;;;2.92;0.80;;;40.40;15.70;;;;;;5029287;28;20029;-67
2021/10/23 10:32:40;;;;;;;5.15;1.58;;;37.70;15.20;;;;;;5029919;28;20034;-67
2021/10/23 10:43:06;;;;;;;5.05;1.70;;;29.10;23.70;;;;;;5027454;28;20045;-67
2021/10/23 10:48:41;;;;;;;5.20;1.05;;;35.40;19.30;;;;;;5037897;28;20037;-67
2021/10/23 10:51:14;;;;;;;4.75;1.30;;;34.90;19.60;;;;;;5024667;28;20038;-67
2021/10/23 10:54:02;;;;;;;4.78;1.33;;;37.00;18.20;;;;;;5022575;28;20053;-67
2021/10/23 10:56:43;;;;;;;4.15;1.08;;;38.90;17.20;;;;;;5021088;28;20026;-67
2021/10/23 10:59:09;;;;;;;3.22;1.13;;;38.10;14.90;;;;;;5020706;28;20034;-67
2021/10/23 11:01:35;;;;;;;3.90;1.10;;;34.40;16.70;;;;;;5028860;28;20087;-67
2021/10/23 11:04:11;;;;;;;3.47;0.90;;;32.10;19.30;;;;;;5026686;28;20029;-67
2021/10/23 11:06:42;;;;;;;4.15;1.00;;;32.90;19.70;;;;;;5024399;28;20060;-67
2021/10/23 11:09:10;;;;;;;5.22;1.20;;;35.20;18.90;;;;;;5027127;28;20034;-67
2021/10/23 11:11:49;;;;;;;4.53;0.80;;;37.70;17.30;;;;;;5016023;28;20053;-67
2021/10/23 11:14:24;;;;;;;3.33;0.77;;;35.10;17.90;;;;;;5025442;28;20026;-67
2021/10/23 11:16:55;;;;;;;4.65;1.30;;;33.30;19.10;;;;;;5027838;28;20029;-68
2021/10/23 11:19:31;;;;;;;4.60;1.30;;;31.50;19.70;;;;;;5027607;28;20112;-67
2021/10/23 11:22:05;;;;;;;5.32;1.10;;;29.60;21.40;;;;;;5026720;28;20045;-67
2021/10/23 11:24:37;;;;;;;3.72;1.00;;;27.90;23.00;;;;;;5026171;28;20022;-67
2021/10/23 11:27:02;;;;;;;6.32;1.40;;;26.80;23.90;;;;;;5011171;28;20040;-67
2021/10/23 11:29:29;;;;;;;4.65;1.30;;;25.80;25.20;;;;;;5025331;28;20192;-66
2021/10/23 11:31:56;;;;;;;6.43;1.50;;;25.30;25.90;;;;;;5025223;28;20107;-66
2021/10/23 11:34:23;;;;;;;7.35;1.48;;;25.10;26.50;;;;;;5025617;28;20072;-67
2021/10/23 11:37:23;;;;;;;6.93;1.65;;;27.80;26.10;;;;;;5025788;28;20032;-66
2021/10/23 11:40:04;;;;;;;5.60;1.40;;;27.40;24.20;;;;;;5011789;28;20107;-66
2021/10/23 11:42:34;;;;;;;4.82;1.30;;;27.30;24.80;;;;;;5020907;28;20037;-67
2021/10/23 11:45:11;;;;;;;5.53;1.60;;;26.50;24.40;;;;;;5036369;28;20031;-67
2021/10/23 11:47:37;;;;;;;6.55;1.30;;;25.50;25.60;;;;;;5022401;28;20030;-67
2021/10/23 11:50:16;;;;;;;4.57;1.40;;;24.90;26.50;;;;;;5030277;28;20436;-67
2021/10/23 11:52:49;;;;;;;6.32;1.50;;;24.50;27.50;;;;;;5032819;28;20056;-67
2021/10/23 11:55:39;;;;;;;6.43;1.40;;;27.00;27.30;;;;;;5025036;28;20022;-68
2021/10/23 11:58:09;;;;;;;6.15;1.70;;;31.50;23.60;;;;;;5030284;28;20079;-68
2021/10/23 12:00:37;;;;;;;;;;;33.40;20.60;;;;;;5030269;28;20026;-68
2021/10/23 12:03:06;;;;;;;5.53;1.65;;;30.70;20.60;;;;;;5014201;28;19917;-68
2021/10/23 12:05:49;;;;;;;6.05;1.70;;;28.50;22.50;;;;;;5025947;28;20503;-67
2021/10/23 12:08:18;;;;;;;7.00;1.60;;;26.60;24.70;;;;;;5022167;28;20029;-67
2021/10/23 12:11:10;;;;;;;5.25;1.38;;;25.50;25.80;;;;;;5032113;28;20381;-67
2021/10/23 12:13:55;;;;;;;5.22;1.60;;;24.80;27.00;;;;;;5030928;28;20395;-67
2021/10/23 12:16:31;;;;;;;7.20;1.65;;;24.20;27.50;;;;;;5037376;28;20033;-67
2021/10/23 12:19:08;;;;;;;5.93;1.60;;;24.00;28.00;;;;;;5026395;28;20030;-67
2021/10/23 12:21:37;;;;;;;4.82;1.45;;;23.70;28.50;;;;;;5024597;28;20100;-67
2021/10/23 12:24:18;;;;;;;4.28;1.50;;;23.50;29.10;;;;;;5018690;28;20077;-67
2021/10/23 12:27:09;;;;;;;10.52;1.85;;;23.20;29.90;;;;;;5031298;28;20025;-67
2021/10/23 12:29:46;;;;;;;4.35;1.60;;;23.00;29.70;;;;;;5043814;28;20037;-67
2021/10/23 12:32:20;;;;;;;6.57;1.70;;;23.10;29.50;;;;;;5035059;28;20476;-67
2021/10/23 12:34:52;;;;;;;6.75;1.63;;;23.20;29.50;;;;;;5021250;28;20072;-67
2021/10/23 12:37:26;;;;;;;5.03;1.65;;;23.40;29.40;;;;;;5017041;28;20061;-67
2021/10/23 12:40:10;;;;;;;4.70;1.50;;;23.70;29.10;;;;;;5038785;28;20091;-67
2021/10/23 12:42:44;;;;;;;5.57;1.58;;;23.70;29.20;;;;;;5031789;28;20048;-67
2021/10/23 12:45:13;;;;;;;5.75;1.77;;;23.60;29.30;;;;;;5012218;28;20022;-67
2021/10/23 12:47:39;;;;;;;6.00;1.92;;;23.30;29.80;;;;;;5030860;28;20516;-67
2021/10/23 12:50:07;;;;;;;5.18;1.42;;;23.10;30.00;;;;;;5018020;28;20029;-67
2021/10/23 12:52:34;;;;;;;4.18;1.45;;;23.00;30.60;;;;;;5021866;28;20053;-67
2021/10/23 12:55:02;;;;;;;4.13;1.40;;;24.60;29.30;;;;;;5021307;28;20065;-67
2021/10/23 12:57:29;;;;;;;7.03;1.60;;;28.80;25.70;;;;;;5038466;28;20018;-68
2021/10/23 12:59:56;;;;;;;5.68;1.65;;;30.60;22.50;;;;;;5031035;28;20052;-67